Putney, VT (05346)

8:41 AM EST on December 21, 2014 (GMT -0500)
Ramsay Hill Road | Change Station
CLOSE
Current Station
Personal Weather Station
Location: Walpole, NH
Elevation: 950 ft
Nearby Weather Stations
Active Advisory: Special Statement

Elev 950 ft 43.07 °N, 72.41 °W | Updated 1 minute ago

Overcast
Overcast
25.6 °F
Feels Like 26 °F
N
0.0
Wind Variable Wind from NE
Gusts 0.0 mph

Today
High -- | Low -- °F
--% Chance of Precip.
Yesterday
High -- | Low -- °F
Precip. -- in
7:18 AM 4:18 PM
Waning Crescent, 0% visible
Pressure 30.32 in
Visibility 1.2 miles
Clouds Mostly Cloudy 600 ft
Mostly Cloudy 1000 ft
Overcast 2400 ft
Windchill 26 °F
Dew Point 24 °F
Humidity 94%
Rainfall 0.00 in
Snow Depth Not available.
UV 0 out of 12
Pollen .10 out of 12
Air Quality Not available.
Flu Activity Not available.
METAR KEEN 211335Z AUTO 35004KT 1 1/4SM BKN006 BKN010 OVC024 M02/M02 A3032 RMK AO1

More Conditions Fewer Conditions

Pressure 30.32 in
Visibility 1.2 miles
Clouds Mostly Cloudy 600 ft
Mostly Cloudy 1000 ft
Overcast 2400 ft
Windchill 26 °F
Dew Point 24 °F
Humidity 94%
Rainfall 0.00 in
Snow Depth Not available.
UV 0 out of 12
Pollen .10 out of 12
Air Quality Not available.
Flu Activity Not available.
METAR KEEN 211335Z AUTO 35004KT 1 1/4SM BKN006 BKN010 OVC024 M02/M02 A3032 RMK AO1

More Conditions Fewer Conditions

10-Day Weather Forecast

Almanac

Astronomy

Dec. 21, 2014 Rise Set
Actual Time
Civil Twilight
Nautical Twilight
Astronomical Twilight
Moon
Length of Visible Light
Length of Day
Tomorrow will be .
, % of the Moon is Illuminated

Today's Extremes

State Highs State Lows

Community

WunderPhotos

Upload Photos

1,779,386 photos uploaded!

WunderBlogs® & News

Nearby

Air Quality

  Air Quality AQ Index Pollutant
Not available.

Snow Depth

Station Depth Elevation

Earthquake Activity

City Distance Mag. Time & Date
Minimum magnitude displayed is 2.5.

Coastal Water Temperatures

Place Temperature

Nearby Weather Stations